Time;durP1;ratioP1;P1;durP2;ratioP2;P2;SDS_P1;SDS_P2;PMS_P1;PMS_P2;Temp;Humidity;BMP_temperature;BMP_pressure;BME280_temperature;BME280_humidity;BME280_pressure;Samples;Min_cycle;Max_cycle;Signal;HPM_P1;HPM_P2
2022/12/11 00:00:51;;;;;;;22.35;10.93;;;;;;;0.03;81.72;95787.38;1772635;79;25753;-72
2022/12/11 00:03:20;;;;;;;17.50;10.75;;;;;;;0.03;81.72;95779.42;1774065;79;25762;-71
2022/12/11 00:05:46;;;;;;;18.00;10.78;;;;;;;-0.03;81.58;95774.87;1774434;79;27357;-74
2022/12/11 00:08:13;;;;;;;13.93;9.70;;;;;;;-0.08;81.57;95767.95;1774341;79;25596;-72
2022/12/11 00:10:48;;;;;;;12.53;8.68;;;;;;;-0.07;81.66;95774.91;1774482;79;25751;-74
2022/12/11 00:13:15;;;;;;;13.43;9.03;;;;;;;-0.06;81.72;95767.27;1774399;79;25763;-73
2022/12/11 00:15:41;;;;;;;12.98;9.45;;;;;;;-0.07;81.70;95773.58;1774478;79;25799;-72
2022/12/11 00:18:12;;;;;;;17.37;10.78;;;;;;;-0.07;81.72;95769.60;1774479;79;27536;-74
2022/12/11 00:20:40;;;;;;;16.62;10.85;;;;;;;-0.06;81.76;95769.42;1787094;77;25761;-73
2022/12/11 00:23:06;;;;;;;15.00;10.05;;;;;;;-0.03;81.80;95769.56;1800588;76;25634;-72
2022/12/11 00:25:33;;;;;;;14.23;9.68;;;;;;;-0.01;81.78;95764.90;1833974;77;25674;-73
2022/12/11 00:27:59;;;;;;;16.50;10.90;;;;;;;-0.02;81.74;95773.86;1800792;76;25599;-71
2022/12/11 00:30:26;;;;;;;18.60;10.45;;;;;;;-0.03;81.81;95762.42;1833912;77;28148;-75
2022/12/11 00:32:53;;;;;;;19.52;12.05;;;;;;;-0.05;81.83;95760.96;1823287;77;25811;-72
2022/12/11 00:35:20;;;;;;;24.25;15.55;;;;;;;-0.01;81.87;95764.90;1820285;77;26513;-72
2022/12/11 00:37:46;;;;;;;25.85;17.00;;;;;;;0.02;81.93;95767.66;1833477;77;25722;-71
2022/12/11 00:40:13;;;;;;;25.45;13.83;;;;;;;0.04;81.92;95759.02;1800748;77;25908;-72
2022/12/11 00:42:40;;;;;;;19.30;12.33;;;;;;;0.07;81.90;95763.95;1800770;76;28155;-72
2022/12/11 00:45:08;;;;;;;18.77;12.73;;;;;;;0.07;81.90;95762.13;1800725;77;25774;-75
2022/12/11 00:47:35;;;;;;;13.88;9.20;;;;;;;0.05;81.83;95757.51;1834036;77;25766;-73
2022/12/11 00:50:01;;;;;;;16.25;10.18;;;;;;;0.02;81.83;95764.50;1816195;77;25673;-72
2022/12/11 00:52:28;;;;;;;15.10;10.30;;;;;;;0.03;81.89;95767.48;1848060;77;25425;-72
2022/12/11 00:54:55;;;;;;;15.30;9.90;;;;;;;0.05;81.85;95765.47;1836694;76;27383;-71
2022/12/11 00:57:21;;;;;;;16.65;10.15;;;;;;;0.04;81.73;95761.67;1800452;77;25654;-72
2022/12/11 00:59:48;;;;;;;14.43;9.05;;;;;;;0.04;81.77;95759.84;1800736;77;25673;-71
2022/12/11 01:02:15;;;;;;;14.07;9.08;;;;;;;0.04;81.68;95762.49;1800475;77;25721;-72
2022/12/11 01:04:42;;;;;;;15.50;9.55;;;;;;;0.00;81.67;95755.40;1836820;76;25580;-72
2022/12/11 01:07:08;;;;;;;12.82;9.03;;;;;;;0.02;81.70;95759.70;1830465;76;27360;-72
2022/12/11 01:12:20;;;;;;;15.60;9.88;;;;;;;-0.12;81.58;95765.38;1820180;77;25676;-75
2022/12/11 01:14:47;;;;;;;15.15;9.78;;;;;;;-0.11;81.74;95763.02;1847363;77;25686;-74
2022/12/11 01:17:13;;;;;;;15.58;9.83;;;;;;;-0.09;81.80;95759.67;1800804;77;25529;-73
2022/12/11 01:19:40;;;;;;;16.48;10.48;;;;;;;-0.04;81.81;95755.98;1800736;77;27342;-72
2022/12/11 01:22:07;;;;;;;14.70;9.40;;;;;;;-0.04;81.67;95749.34;1800724;76;25729;-72
2022/12/11 01:24:33;;;;;;;15.25;9.38;;;;;;;-0.08;81.63;95741.43;1800887;77;25712;-74
2022/12/11 01:27:00;;;;;;;14.25;9.78;;;;;;;-0.08;81.69;95742.76;1800887;76;25667;-72
2022/12/11 01:29:26;;;;;;;16.23;9.58;;;;;;;-0.07;81.73;95739.10;1800766;77;25716;-71
2022/12/11 01:31:53;;;;;;;15.13;9.33;;;;;;;-0.04;81.82;95742.72;1817774;77;27346;-75
2022/12/11 01:34:20;;;;;;;13.28;8.20;;;;;;;0.02;81.85;95742.45;1802448;77;25526;-72
2022/12/11 01:36:47;;;;;;;13.98;9.10;;;;;;;0.05;81.78;95756.19;1800742;76;25724;-72
2022/12/11 01:39:14;;;;;;;13.05;9.03;;;;;;;0.02;81.63;95759.20;1800374;77;26349;-71
2022/12/11 01:41:41;;;;;;;14.43;8.75;;;;;;;0.02;81.65;95759.70;1800758;77;25780;-74
2022/12/11 01:44:18;;;;;;;13.32;9.28;;;;;;;0.02;81.65;95748.59;1800711;77;27367;-71
2022/12/11 01:46:45;;;;;;;13.35;8.68;;;;;;;0.02;81.63;95754.39;1798750;76;25689;-72
2022/12/11 01:49:14;;;;;;;12.28;8.85;;;;;;;0.03;81.64;95747.58;1800762;77;25678;-70
2022/12/11 01:51:52;;;;;;;13.58;8.90;;;;;;;0.05;81.64;95739.44;1800750;77;25760;-72
2022/12/11 01:54:22;;;;;;;14.47;8.85;;;;;;;0.00;81.61;95741.34;1705390;83;25839;-73
2022/12/11 01:56:52;;;;;;;14.33;9.45;;;;;;;-0.02;81.65;95740.70;1705426;81;27433;-72
2022/12/11 01:59:23;;;;;;;14.13;8.68;;;;;;;-0.02;81.66;95732.75;1705187;83;25747;-71
2022/12/11 02:02:04;;;;;;;13.70;9.35;;;;;;;-0.03;81.70;95731.10;1712695;83;25759;-72
2022/12/11 02:04:35;;;;;;;12.95;9.18;;;;;;;-0.07;81.66;95734.63;1723706;81;25761;-72
2022/12/11 02:07:02;;;;;;;19.55;12.50;;;;;;;-0.08;81.72;95725.52;1724728;81;25761;-73
2022/12/11 02:09:34;;;;;;;22.15;12.03;;;;;;;-0.10;81.74;95714.27;1733340;82;28198;-72
2022/12/11 02:12:25;;;;;;;14.73;9.70;;;;;;;-0.10;81.78;95717.74;1733237;82;25715;-71
2022/12/11 02:15:09;;;;;;;13.35;8.98;;;;;;;-0.09;81.87;95709.28;1702545;84;26567;-72
2022/12/11 02:17:56;;;;;;;15.20;9.33;;;;;;;-0.05;81.89;95717.20;1725817;82;25797;-76
2022/12/11 02:20:53;;;;;;;12.53;8.53;;;;;;;-0.05;81.89;95709.23;1725470;81;25820;-72
2022/12/11 02:23:42;;;;;;;14.43;9.78;;;;;;;-0.05;81.84;95707.91;1723677;83;27375;-72
2022/12/11 02:26:35;;;;;;;12.68;8.28;;;;;;;-0.10;81.82;95704.48;1721028;83;25816;-71
2022/12/11 02:29:06;;;;;;;12.88;8.45;;;;;;;-0.10;81.87;95702.33;1700334;84;25876;-72
2022/12/11 02:31:44;;;;;;;11.90;8.05;;;;;;;-0.17;81.69;95693.49;1667447;83;26737;-72
2022/12/11 02:34:18;;;;;;;12.37;7.83;;;;;;;-0.21;81.74;95697.52;1618124;88;25919;-74
2022/12/11 02:36:50;;;;;;;10.95;8.55;;;;;;;-0.25;81.90;95697.59;1618140;88;27987;-72
2022/12/11 02:39:21;;;;;;;11.65;8.10;;;;;;;-0.26;82.00;95701.25;1605371;88;25817;-72
2022/12/11 02:41:50;;;;;;;10.45;7.20;;;;;;;-0.26;82.00;95698.59;1620613;88;25773;-72
2022/12/11 02:44:21;;;;;;;14.65;9.08;;;;;;;-0.24;82.04;95704.53;1613302;88;26427;-72
2022/12/11 02:46:48;;;;;;;12.53;8.40;;;;;;;-0.20;82.04;95704.47;1620795;88;25783;-70
2022/12/11 02:49:16;;;;;;;13.25;8.40;;;;;;;-0.17;82.07;95701.45;1613323;88;27401;-70
2022/12/11 02:51:44;;;;;;;10.03;7.55;;;;;;;-0.15;81.93;95704.74;1620541;88;26217;-72
2022/12/11 02:54:21;;;;;;;13.13;8.50;;;;;;;-0.13;81.93;95693.45;1613187;88;25794;-71
2022/12/11 02:57:02;;;;;;;15.78;9.05;;;;;;;-0.09;81.90;95694.19;1617554;88;26626;-72
2022/12/11 02:59:37;;;;;;;13.70;8.45;;;;;;;-0.12;81.80;95697.21;1610038;89;25840;-71
2022/12/11 03:02:05;;;;;;;13.93;8.43;;;;;;;-0.12;81.80;95685.81;1612004;88;28290;-73
2022/12/11 03:04:35;;;;;;;11.90;8.33;;;;;;;-0.15;81.72;95680.88;1607322;89;25963;-72
2022/12/11 03:07:13;;;;;;;12.45;8.33;;;;;;;-0.14;81.82;95685.17;1619958;88;25864;-72
2022/12/11 03:09:41;;;;;;;14.03;9.58;;;;;;;-0.16;81.78;95684.03;1619079;88;25725;-70
2022/12/11 03:12:13;;;;;;;13.35;8.90;;;;;;;-0.18;81.73;95685.22;1619117;88;25835;-71
2022/12/11 03:14:41;;;;;;;11.93;8.40;;;;;;;-0.24;81.71;95684.12;1619287;88;27399;-71
2022/12/11 03:17:13;;;;;;;14.38;8.63;;;;;;;-0.26;81.74;95684.02;1619165;88;26330;-72
2022/12/11 03:20:05;;;;;;;13.40;8.63;;;;;;;-0.26;81.81;95680.03;1617002;88;25832;-71
2022/12/11 03:22:40;;;;;;;11.50;7.95;;;;;;;-0.23;81.87;95679.64;1619435;88;25710;-71
2022/12/11 03:25:12;;;;;;;13.50;8.70;;;;;;;-0.24;81.85;95668.20;1606528;89;25729;-71
2022/12/11 03:27:57;;;;;;;12.45;9.05;;;;;;;-0.23;81.90;95660.57;1587801;89;28265;-73
2022/12/11 03:30:26;;;;;;;13.10;8.70;;;;;;;-0.22;81.95;95660.89;1566542;89;25803;-76
2022/12/11 03:33:00;;;;;;;12.30;8.05;;;;;;;-0.21;81.96;95652.44;1604606;89;25494;-74
2022/12/11 03:35:35;;;;;;;10.98;7.85;;;;;;;-0.21;81.95;95647.13;1548367;92;25910;-71
2022/12/11 03:38:07;;;;;;;10.50;7.42;;;;;;;-0.21;81.90;95645.80;1507898;95;25341;-71
2022/12/11 03:40:37;;;;;;;11.55;7.58;;;;;;;-0.26;81.82;95644.23;1505550;95;27536;-72
2022/12/11 03:43:06;;;;;;;12.18;7.67;;;;;;;-0.31;81.81;95645.28;1507842;95;25580;-71
2022/12/11 03:45:34;;;;;;;11.28;8.03;;;;;;;-0.32;81.91;95647.63;1507826;95;25856;-72
2022/12/11 03:48:02;;;;;;;26.45;15.95;;;;;;;-0.29;81.94;95647.25;1507919;95;25826;-76
2022/12/11 03:50:32;;;;;;;18.90;11.80;;;;;;;-0.34;81.87;95649.63;1484631;96;25792;-74
2022/12/11 03:53:01;;;;;;;12.80;8.80;;;;;;;-0.36;81.99;95644.01;1507916;95;28090;-71
2022/12/11 03:55:29;;;;;;;11.68;8.15;;;;;;;-0.33;82.09;95649.95;1507631;95;25810;-73
2022/12/11 03:57:56;;;;;;;8.20;6.10;;;;;;;-0.28;82.12;95656.85;1488968;95;25417;-74
2022/12/11 04:00:23;;;;;;;11.88;6.67;;;;;;;-0.36;81.69;95647.16;1507956;95;26573;-72
2022/12/11 04:05:35;;;;;;;6.60;5.00;;;;;;;-0.42;81.55;95654.55;1535192;93;28297;-71
2022/12/11 04:08:02;;;;;;;10.00;6.25;;;;;;;-0.42;81.66;95649.25;1553511;91;25865;-73
2022/12/11 04:10:29;;;;;;;8.93;6.72;;;;;;;-0.46;81.75;95650.11;1565223;91;25837;-73
2022/12/11 04:12:55;;;;;;;11.03;6.42;;;;;;;-0.49;81.82;95645.20;1595807;87;25806;-72
2022/12/11 04:15:22;;;;;;;9.08;6.53;;;;;;;-0.51;81.94;95641.91;1644694;87;25739;-71
2022/12/11 04:26:11;;;;;;;8.98;6.37;;;;;;;-0.50;82.17;95655.48;1701673;83;25778;-72
2022/12/11 04:28:39;;;;;;;9.58;6.83;;;;;;;-0.51;82.22;95653.84;1697654;83;25746;-71
2022/12/11 04:31:11;;;;;;;8.58;6.40;;;;;;;-0.45;82.31;95654.41;1687990;81;27591;-72
2022/12/11 04:33:38;;;;;;;;;;;;;;;-0.45;82.28;95651.76;1752466;77;25771;-72
2022/12/11 04:36:07;;;;;;;10.15;6.50;;;;;;;-0.47;82.21;95647.14;1825150;77;25262;-71
2022/12/11 04:38:34;;;;;;;9.80;6.50;;;;;;;-0.50;82.22;95649.36;1797420;77;25721;-73
2022/12/11 04:41:05;;;;;;;8.98;6.80;;;;;;;-0.50;82.24;95648.04;1797597;77;26391;-73
2022/12/11 04:43:32;;;;;;;7.70;5.40;;;;;;;-0.49;82.28;95654.48;1794367;78;28180;-74
2022/12/11 04:46:08;;;;;;;10.72;6.78;;;;;;;-0.50;82.15;95652.02;1815623;78;25695;-71
2022/12/11 04:48:35;;;;;;;13.43;8.23;;;;;;;-0.51;82.14;95653.84;1698389;83;25775;-70
2022/12/11 04:51:02;;;;;;;11.88;8.18;;;;;;;-0.49;82.17;95654.48;1697759;83;25782;-71
2022/12/11 04:53:29;;;;;;;11.53;7.30;;;;;;;-0.46;82.18;95650.11;1698414;83;25762;-72
2022/12/11 04:55:55;;;;;;;9.70;6.37;;;;;;;-0.45;82.17;95641.66;1698104;83;27370;-73
2022/12/11 04:58:23;;;;;;;8.50;5.62;;;;;;;-0.42;82.18;95639.47;1698491;83;25671;-73
2022/12/11 05:00:51;;;;;;;9.50;6.10;;;;;;;-0.39;82.15;95636.45;1698492;83;25767;-71
2022/12/11 05:03:18;;;;;;;8.33;6.00;;;;;;;-0.38;82.14;95635.95;1717861;82;25971;-72
2022/12/11 05:05:51;;;;;;;9.50;6.58;;;;;;;-0.35;82.20;95626.27;1722720;82;25827;-71
2022/12/11 05:08:19;;;;;;;9.18;6.85;;;;;;;-0.40;81.96;95632.16;1723198;82;27437;-73
2022/12/11 05:11:06;;;;;;;8.78;6.50;;;;;;;-0.45;81.90;95633.20;1726709;82;25805;-71
2022/12/11 05:13:33;;;;;;;8.18;5.53;;;;;;;-0.46;81.94;95632.89;1726992;82;25878;-73
2022/12/11 05:16:06;;;;;;;8.00;5.50;;;;;;;-0.46;81.90;95619.63;1723779;82;25776;-73
2022/12/11 05:18:33;;;;;;;13.03;7.85;;;;;;;-0.44;81.85;95621.59;1726409;82;25817;-70
2022/12/11 05:21:04;;;;;;;16.85;10.08;;;;;;;-0.44;81.75;95620.27;1726750;82;27355;-72
2022/12/11 05:23:31;;;;;;;9.95;6.58;;;;;;;-0.44;81.76;95623.42;1667473;86;25763;-73
2022/12/11 05:26:02;;;;;;;10.38;6.75;;;;;;;-0.42;81.77;95619.59;1665442;85;25902;-73
2022/12/11 05:28:32;;;;;;;7.85;5.78;;;;;;;-0.41;81.75;95617.25;1666672;86;26324;-72
2022/12/11 05:31:04;;;;;;;10.72;6.37;;;;;;;-0.40;81.70;95615.42;1665609;86;25824;-74
2022/12/11 05:33:31;;;;;;;9.50;6.28;;;;;;;-0.40;81.66;95616.75;1609923;88;28199;-72
2022/12/11 05:35:57;;;;;;;10.48;6.92;;;;;;;-0.42;81.61;95610.31;1609658;88;25990;-71
2022/12/11 05:38:24;;;;;;;10.13;6.80;;;;;;;-0.43;81.63;95600.70;1610029;88;25899;-72
2022/12/11 05:41:03;;;;;;;8.98;6.70;;;;;;;-0.42;81.57;95605.51;1637023;87;26486;-71
2022/12/11 05:43:34;;;;;;;12.85;7.90;;;;;;;-0.44;81.54;95590.29;1648663;85;26057;-73
2022/12/11 05:46:10;;;;;;;12.18;7.40;;;;;;;-0.52;81.53;95579.31;1674066;85;27344;-75
2022/12/11 05:48:38;;;;;;;9.83;7.22;;;;;;;-0.53;81.60;95585.62;1680645;85;25805;-72
2022/12/11 05:51:06;;;;;;;9.55;6.60;;;;;;;-0.57;81.68;95579.04;1680728;85;26768;-73
2022/12/11 05:53:33;;;;;;;10.58;6.60;;;;;;;-0.56;81.76;95587.30;1675570;83;25686;-74
2022/12/11 05:56:10;;;;;;;9.90;6.72;;;;;;;-0.59;81.75;95585.02;1668199;85;26156;-72
2022/12/11 05:58:37;;;;;;;11.05;6.67;;;;;;;-0.58;81.86;95579.22;1572542;89;28244;-71
2022/12/11 06:01:10;;;;;;;8.88;6.05;;;;;;;-0.57;81.90;95575.06;1578996;89;25754;-74
2022/12/11 06:03:37;;;;;;;11.33;7.28;;;;;;;-0.58;81.81;95585.34;1569590;90;25953;-74
2022/12/11 06:06:05;;;;;;;16.87;11.73;;;;;;;-0.64;81.72;95588.75;1562612;90;26559;-72
2022/12/11 06:08:33;;;;;;;11.95;8.45;;;;;;;-0.68;81.75;95595.42;1566367;90;25967;-72
2022/12/11 06:11:00;;;;;;;19.17;13.50;;;;;;;-0.76;81.70;95595.53;1575211;90;28245;-72
2022/12/11 06:13:27;;;;;;;14.63;9.93;;;;;;;-0.77;81.82;95600.02;1553409;90;25840;-75
2022/12/11 06:15:54;;;;;;;12.18;7.83;;;;;;;-0.77;81.91;95602.66;1553620;90;25797;-74
2022/12/11 06:18:21;;;;;;;12.25;7.35;;;;;;;-0.79;81.85;95606.50;1553551;90;25999;-75
2022/12/11 06:20:47;;;;;;;9.60;6.25;;;;;;;-0.80;81.88;95607.00;1588554;88;25683;-73
2022/12/11 06:23:14;;;;;;;10.78;7.30;;;;;;;-0.80;81.91;95606.17;1610363;88;27392;-72
2022/12/11 06:25:41;;;;;;;11.88;7.45;;;;;;;-0.77;82.00;95600.02;1602610;88;25833;-71
2022/12/11 06:28:07;;;;;;;12.35;8.18;;;;;;;-0.75;82.00;95606.45;1602779;88;26637;-72
2022/12/11 06:30:35;;;;;;;12.65;8.28;;;;;;;-0.72;82.02;95604.73;1630294;85;26466;-76
2022/12/11 06:33:01;;;;;;;13.70;9.40;;;;;;;-0.69;82.04;95611.00;1651808;85;25810;-75
2022/12/11 06:35:28;;;;;;;12.58;7.90;;;;;;;-0.70;81.94;95605.38;1641597;85;27423;-72
2022/12/11 06:37:54;;;;;;;8.90;6.80;;;;;;;-0.73;81.83;95599.15;1641406;85;25739;-72
2022/12/11 06:40:21;;;;;;;11.57;7.72;;;;;;;-0.82;81.60;95599.73;1641491;85;25782;-72
2022/12/11 06:42:48;;;;;;;8.70;7.15;;;;;;;-0.89;81.58;95601.98;1641543;85;25883;-71
2022/12/11 06:45:15;;;;;;;13.03;7.45;;;;;;;-0.93;81.59;95599.38;1657325;85;25881;-72
2022/12/11 06:47:41;;;;;;;11.97;8.05;;;;;;;-1.04;81.59;95602.50;1641603;85;27377;-72
2022/12/11 06:50:09;;;;;;;12.28;7.53;;;;;;;-1.03;81.76;95612.09;1641262;85;25787;-72
2022/12/11 06:52:35;;;;;;;9.93;6.95;;;;;;;-1.06;81.82;95607.16;1641577;85;25424;-73
2022/12/11 06:55:02;;;;;;;10.40;6.67;;;;;;;-1.04;81.93;95605.97;1703402;79;25724;-75
2022/12/11 06:57:29;;;;;;;11.73;6.53;;;;;;;-1.03;81.94;95614.73;1797052;79;25738;-73
2022/12/11 06:59:55;;;;;;;9.25;5.87;;;;;;;-1.07;81.83;95611.63;1797108;79;27340;-71
2022/12/11 07:02:22;;;;;;;12.13;6.15;;;;;;;-1.11;81.78;95613.84;1795816;78;25715;-73
2022/12/11 07:04:49;;;;;;;15.85;8.73;;;;;;;-1.14;81.75;95613.38;1786380;80;25662;-72
2022/12/11 07:07:16;;;;;;;9.28;6.10;;;;;;;-1.16;81.73;95618.02;1786708;80;25695;-75
2022/12/11 07:09:42;;;;;;;7.40;5.97;;;;;;;-1.15;81.87;95615.20;1786737;79;25729;-76
2022/12/11 07:12:09;;;;;;;8.80;6.42;;;;;;;-1.14;81.88;95617.34;1797030;79;28258;-71
2022/12/11 07:14:36;;;;;;;8.33;6.47;;;;;;;-1.11;81.87;95617.81;1769758;79;25747;-72
2022/12/11 07:17:02;;;;;;;13.22;7.58;;;;;;;-1.18;81.77;95615.55;1774362;79;25701;-73
2022/12/11 07:19:29;;;;;;;10.30;7.05;;;;;;;-1.14;81.93;95620.81;1778959;79;25714;-74
2022/12/11 07:21:56;;;;;;;10.98;8.00;;;;;;;-1.09;81.94;95622.39;1793838;79;25700;-72
2022/12/11 07:24:22;;;;;;;11.33;7.20;;;;;;;-1.09;81.99;95627.69;1781794;79;28108;-72
2022/12/11 07:26:49;;;;;;;10.35;7.08;;;;;;;-1.11;81.93;95624.43;1790655;79;25769;-74
2022/12/11 07:29:15;;;;;;;9.73;6.80;;;;;;;-1.09;81.99;95633.52;1784642;79;26595;-73
2022/12/11 07:31:42;;;;;;;12.70;7.15;;;;;;;-1.05;82.05;95637.92;1788106;79;25715;-73
2022/12/11 07:34:12;;;;;;;10.60;6.62;;;;;;;-1.02;82.03;95625.66;1787273;79;25714;-73
2022/12/11 07:36:39;;;;;;;9.53;7.08;;;;;;;-0.98;82.02;95628.27;1786020;79;27363;-72
2022/12/11 07:39:07;;;;;;;10.25;7.42;;;;;;;-0.96;82.00;95627.05;1766992;79;25796;-75
2022/12/11 07:41:34;;;;;;;10.72;6.70;;;;;;;-0.92;82.01;95626.19;1783690;79;25328;-73
2022/12/11 07:44:01;;;;;;;9.15;6.40;;;;;;;-0.91;81.99;95634.45;1769214;79;25815;-73
2022/12/11 07:46:31;;;;;;;9.33;6.62;;;;;;;-0.92;81.92;95634.96;1781031;79;25740;-72
2022/12/11 07:48:59;;;;;;;9.35;6.83;;;;;;;-0.88;81.96;95634.92;1775022;79;28194;-73
2022/12/11 07:51:32;;;;;;;12.07;7.53;;;;;;;-0.85;81.89;95638.54;1763800;81;25677;-73
2022/12/11 07:54:04;;;;;;;10.13;6.53;;;;;;;-0.95;81.70;95650.39;1772405;79;25635;-77
2022/12/11 07:56:33;;;;;;;10.25;7.30;;;;;;;-0.97;81.87;95655.07;1704573;83;25822;-74
2022/12/11 07:59:02;;;;;;;11.68;7.72;;;;;;;-0.99;81.89;95645.16;1724456;83;25850;-73
2022/12/11 08:01:32;;;;;;;11.35;7.62;;;;;;;-0.98;81.99;95644.16;1724458;83;28140;-72
2022/12/11 08:03:59;;;;;;;14.53;8.78;;;;;;;-0.93;82.06;95636.46;1727219;81;25808;-72
2022/12/11 08:06:29;;;;;;;14.30;9.25;;;;;;;-0.89;82.02;95640.40;1738299;81;25823;-71
2022/12/11 08:08:58;;;;;;;17.45;11.03;;;;;;;-0.88;81.98;95649.99;1743876;81;25829;-73
2022/12/11 08:11:26;;;;;;;16.65;10.32;;;;;;;-0.95;81.79;95650.39;1759536;79;25807;-72
2022/12/11 08:13:53;;;;;;;16.42;10.78;;;;;;;-1.00;81.78;95649.63;1759150;79;28013;-75
2022/12/11 08:16:20;;;;;;;19.57;11.97;;;;;;;-1.02;81.80;95654.28;1761590;81;25743;-73
2022/12/11 08:18:47;;;;;;;17.95;11.55;;;;;;;-1.01;81.86;95647.16;1762870;81;25939;-73
2022/12/11 08:21:17;;;;;;;19.10;12.50;;;;;;;-1.01;81.86;95644.01;1762823;81;25811;-73
2022/12/11 08:23:44;;;;;;;17.50;11.68;;;;;;;-0.99;81.83;95648.63;1761674;79;25720;-73
2022/12/11 08:26:18;;;;;;;19.20;11.93;;;;;;;-0.96;81.84;95641.62;1759314;79;27366;-73
2022/12/11 08:28:45;;;;;;;18.82;11.85;;;;;;;-0.95;81.83;95637.14;1701123;82;25842;-74
2022/12/11 08:31:14;;;;;;;17.73;11.55;;;;;;;-0.92;81.93;95634.13;1702961;83;25928;-75
2022/12/11 08:33:42;;;;;;;17.67;11.70;;;;;;;-0.90;81.87;95630.81;1702907;82;26311;-76
2022/12/11 08:36:12;;;;;;;17.77;10.98;;;;;;;-0.89;81.80;95635.10;1703048;82;26571;-75
2022/12/11 08:38:40;;;;;;;18.30;11.35;;;;;;;-0.92;81.69;95634.13;1702763;82;27377;-74
2022/12/11 08:41:12;;;;;;;17.45;11.18;;;;;;;-0.99;81.68;95642.00;1702730;82;26361;-73
2022/12/11 08:43:40;;;;;;;17.27;11.73;;;;;;;-1.02;81.72;95645.02;1702873;82;25820;-74
2022/12/11 08:46:07;;;;;;;16.48;11.50;;;;;;;-1.05;81.75;95649.34;1702867;82;25837;-72
2022/12/11 08:48:36;;;;;;;19.60;12.58;;;;;;;-1.06;81.80;95645.55;1702908;82;25758;-74
2022/12/11 08:51:06;;;;;;;20.90;11.90;;;;;;;-1.04;81.88;95648.84;1702632;82;26883;-78
2022/12/11 08:53:33;;;;;;;19.37;12.03;;;;;;;-1.04;81.82;95658.11;1723930;82;25939;-74
2022/12/11 08:56:05;;;;;;;19.90;12.53;;;;;;;-1.07;81.83;95665.09;1744315;81;25796;-74
2022/12/11 08:58:32;;;;;;;;;;;;;;;-1.10;81.78;95662.33;1747306;81;25942;-73
2022/12/11 09:00:59;;;;;;;16.55;11.78;;;;;;;-1.13;81.83;95664.83;1744359;81;25374;-71
2022/12/11 09:03:26;;;;;;;16.73;11.60;;;;;;;-1.22;81.77;95671.72;1746575;81;27418;-76
2022/12/11 09:05:52;;;;;;;21.12;12.82;;;;;;;-1.29;81.84;95670.27;1749660;81;25796;-73
2022/12/11 09:08:19;;;;;;;19.57;11.55;;;;;;;-1.31;81.95;95666.98;1746815;81;25715;-74
2022/12/11 09:10:45;;;;;;;18.30;11.95;;;;;;;-1.32;81.99;95671.95;1746776;81;26637;-76
2022/12/11 09:13:12;;;;;;;17.98;11.78;;;;;;;-1.34;82.09;95672.66;1746866;81;25696;-75
2022/12/11 09:15:42;;;;;;;19.45;12.15;;;;;;;-1.29;82.09;95674.74;1749767;81;27745;-73
2022/12/11 09:18:08;;;;;;;22.35;13.22;;;;;;;-1.27;82.02;95674.07;1749351;81;25492;-73
2022/12/11 09:20:35;;;;;;;23.00;13.85;;;;;;;-1.28;81.99;95669.27;1748980;81;25743;-77
2022/12/11 09:23:02;;;;;;;20.35;12.95;;;;;;;-1.27;81.99;95663.48;1746559;81;25879;-72
2022/12/11 09:25:28;;;;;;;18.80;12.00;;;;;;;-1.30;81.92;95661.19;1793351;76;25798;-73
2022/12/11 09:27:55;;;;;;;19.57;12.47;;;;;;;-1.38;81.90;95651.51;1835691;76;27342;-73
2022/12/11 09:30:22;;;;;;;16.70;9.88;;;;;;;-1.42;81.95;95656.83;1835427;76;25619;-74
2022/12/11 09:32:48;;;;;;;20.97;12.53;;;;;;;-1.40;82.03;95660.12;1835445;76;26326;-75
2022/12/11 09:35:15;;;;;;;18.62;11.48;;;;;;;-1.54;81.88;95656.94;1835239;76;25664;-73
2022/12/11 09:37:42;;;;;;;22.13;13.32;;;;;;;-1.58;82.08;95659.64;1835426;76;25674;-73
2022/12/11 09:40:11;;;;;;;18.25;11.80;;;;;;;-1.52;82.25;95661.06;1807404;77;27977;-73
2022/12/11 09:43:01;;;;;;;20.30;11.08;;;;;;;-1.47;82.29;95656.06;1816888;78;25445;-77
2022/12/11 09:45:28;;;;;;;17.73;10.93;;;;;;;-1.47;82.22;95656.06;1821394;77;25704;-73
2022/12/11 09:47:56;;;;;;;17.50;11.48;;;;;;;-1.50;82.16;95655.59;1809409;78;25723;-74
2022/12/11 09:50:27;;;;;;;19.27;11.35;;;;;;;-1.51;82.20;95656.09;1806977;78;25772;-75
2022/12/11 09:53:30;;;;;;;18.95;11.88;;;;;;;-1.43;82.27;95652.53;1808275;77;27339;-73
2022/12/11 09:56:17;;;;;;;19.40;12.28;;;;;;;-1.34;82.30;95666.04;1701257;82;25747;-76
2022/12/11 09:59:11;;;;;;;18.95;12.23;;;;;;;-1.38;82.21;95664.74;1698910;82;26617;-73
2022/12/11 10:01:49;;;;;;;20.90;13.00;;;;;;;-1.35;82.26;95668.36;1667105;85;25823;-77
2022/12/11 10:04:53;;;;;;;18.50;12.25;;;;;;;-1.31;82.25;95659.54;1673361;83;25712;-73
2022/12/11 10:07:31;;;;;;;18.25;12.45;;;;;;;-1.27;82.26;95655.53;1632118;87;28177;-73
2022/12/11 10:10:19;;;;;;;16.95;11.33;;;;;;;-1.25;82.21;95662.30;1609598;87;26058;-73
2022/12/11 10:13:15;;;;;;;19.42;12.90;;;;;;;-1.19;82.22;95658.91;1582238;90;25745;-73
2022/12/11 10:16:03;;;;;;;19.25;12.80;;;;;;;-1.14;82.13;95657.06;1573166;89;25823;-74
2022/12/11 10:18:32;;;;;;;17.35;12.53;;;;;;;-1.18;81.98;95660.56;1575758;89;25743;-73
2022/12/11 10:21:01;;;;;;;18.98;13.58;;;;;;;-1.11;82.09;95656.20;1577939;89;27414;-72
2022/12/11 10:23:42;;;;;;;16.93;10.95;;;;;;;-1.08;82.11;95656.31;1577485;89;25778;-74
2022/12/11 10:26:21;;;;;;;17.12;11.60;;;;;;;-1.04;82.11;95652.81;1528620;92;25836;-74
2022/12/11 10:28:49;;;;;;;18.42;12.23;;;;;;;-1.07;82.01;95661.11;1528371;92;25968;-75
2022/12/11 10:31:51;;;;;;;17.92;12.58;;;;;;;-1.03;81.98;95659.76;1529977;92;26184;-73
2022/12/11 10:34:34;;;;;;;21.33;13.22;;;;;;;-0.98;82.00;95661.37;1518452;93;28293;-76
2022/12/11 10:37:02;;;;;;;21.27;13.93;;;;;;;-0.92;81.88;95665.92;1516363;93;25836;-75
2022/12/11 10:39:29;;;;;;;21.95;14.38;;;;;;;-0.89;81.95;95665.06;1516943;93;26501;-73
2022/12/11 10:41:57;;;;;;;21.97;14.68;;;;;;;-0.81;82.00;95664.96;1519437;92;25870;-76
2022/12/11 10:44:30;;;;;;;21.17;14.18;;;;;;;-0.80;81.91;95664.45;1526318;92;26036;-73
2022/12/11 10:47:12;;;;;;;23.20;14.38;;;;;;;-0.72;81.96;95664.35;1526182;92;27360;-78
2022/12/11 10:49:59;;;;;;;23.18;15.05;;;;;;;-0.63;81.96;95660.62;1527151;92;25779;-73
2022/12/11 10:52:30;;;;;;;23.73;14.65;;;;;;;-0.56;81.91;95648.77;1555836;90;25849;-75
2022/12/11 10:55:02;;;;;;;21.55;14.55;;;;;;;-0.58;81.60;95648.95;1556230;90;25690;-74
2022/12/11 10:57:35;;;;;;;20.02;13.80;;;;;;;-0.68;81.43;95653.72;1512722;93;25484;-74
2022/12/11 11:00:06;;;;;;;23.60;15.05;;;;;;;-0.66;81.48;95659.66;1524336;93;27537;-76
2022/12/11 11:02:42;;;;;;;22.50;14.93;;;;;;;-0.63;81.49;95655.32;1489924;94;25871;-75
2022/12/11 11:05:33;;;;;;;26.05;16.35;;;;;;;-0.60;81.43;95650.95;1476091;95;26565;-72
2022/12/11 11:08:23;;;;;;;25.88;16.30;;;;;;;-0.59;81.33;95639.85;1437403;98;25815;-75
2022/12/11 11:10:59;;;;;;;26.95;16.35;;;;;;;-0.58;81.37;95642.32;1427861;98;25814;-73
2022/12/11 11:13:31;;;;;;;27.10;16.57;;;;;;;-0.62;81.25;95632.30;1450257;97;27616;-73
2022/12/11 11:16:02;;;;;;;25.48;17.05;;;;;;;-0.61;81.26;95633.94;1468277;95;26464;-73
2022/12/11 11:18:31;;;;;;;21.10;13.30;;;;;;;-0.58;81.22;95633.05;1510292;93;26467;-76
2022/12/11 11:20:58;;;;;;;31.02;18.17;;;;;;;-0.54;81.19;95636.98;1509989;93;25871;-76
2022/12/11 11:23:26;;;;;;;32.20;19.75;;;;;;;-0.54;81.09;95639.63;1510120;93;25925;-77
2022/12/11 11:26:02;;;;;;;29.45;18.45;;;;;;;-0.54;81.04;95634.33;1510043;93;28249;-74
2022/12/11 11:28:33;;;;;;;30.62;19.90;;;;;;;-0.55;81.08;95635.33;1506977;93;26497;-74
2022/12/11 11:31:14;;;;;;;32.20;19.50;;;;;;;-0.53;81.05;95637.30;1510160;93;25433;-74
2022/12/11 11:33:58;;;;;;;33.92;20.72;;;;;;;-0.55;80.94;95646.44;1534873;90;25826;-75
2022/12/11 11:36:32;;;;;;;33.00;19.52;;;;;;;-0.56;80.93;95640.81;1510011;93;25891;-72
2022/12/11 11:39:18;;;;;;;29.50;18.92;;;;;;;-0.68;80.79;95643.12;1509795;93;28193;-77
2022/12/11 11:42:06;;;;;;;29.75;17.95;;;;;;;-0.71;80.79;95640.83;1494951;94;25845;-72
2022/12/11 11:44:41;;;;;;;33.73;18.70;;;;;;;-0.75;80.75;95637.75;1495478;94;25840;-74
2022/12/11 11:47:22;;;;;;;31.87;18.92;;;;;;;-0.76;80.69;95643.23;1469893;96;25869;-75
2022/12/11 11:50:06;;;;;;;25.35;16.40;;;;;;;-0.83;80.41;95647.09;1433877;98;25950;-73
2022/12/11 11:52:47;;;;;;;27.17;17.32;;;;;;;-0.91;80.23;95645.05;1463973;97;27421;-74
2022/12/11 11:55:22;;;;;;;28.02;17.10;;;;;;;-0.94;80.25;95650.70;1476184;95;25962;-74